Time;durP1;ratioP1;P1;durP2;ratioP2;P2;SDS_P1;SDS_P2;PMS_P1;PMS_P2;Temp;Humidity;BMP_temperature;BMP_pressure;BME280_temperature;BME280_humidity;BME280_pressure;Samples;Min_cycle;Max_cycle;Signal;HPM_P1;HPM_P2
2023/09/02 00:01:12;;;;;;;;;;;;;;;;;;5103160;28;4843;-56
2023/09/02 00:03:38;;;;;;;;;;;;;;;;;;5094686;28;5031;-56
2023/09/02 00:06:03;;;;;;;;;;;;;;;;;;5094462;28;4875;-56
2023/09/02 00:08:28;;;;;;;;;;;;;;;;;;5102359;28;5272;-56
2023/09/02 00:10:53;;;;;;;;;;;;;;;;;;5073097;28;2190;-56
2023/09/02 00:13:19;;;;;;;;;;;;;;;;;;5095873;28;5037;-56
2023/09/02 00:15:44;;;;;;;;;;;;;;;;;;5090465;28;5097;-56
2023/09/02 00:18:09;;;;;;;;;;;;;;;;;;5094128;28;5333;-56
2023/09/02 00:20:34;;;;;;;;;;;;;;;;;;5092477;28;5089;-55
2023/09/02 00:23:00;;;;;;;;;;;;;;;;;;5093280;28;1917;-56
2023/09/02 00:25:26;;;;;;;;;;;;;;;;;;5077605;28;4940;-56
2023/09/02 00:27:52;;;;;;;;;;;;;;;;;;5088369;28;4849;-56
2023/09/02 00:30:17;;;;;;;;;;;;;;;;;;5098156;28;4690;-56
2023/09/02 00:32:42;;;;;;;;;;;;;;;;;;5100968;28;4949;-56
2023/09/02 00:35:08;;;;;;;;;;;;;;;;;;5089626;28;1136;-56
2023/09/02 00:37:33;;;;;;;;;;;;;;;;;;5102013;28;4359;-56
2023/09/02 00:39:58;;;;;;;;;;;;;;;;;;5094701;28;5099;-56
2023/09/02 00:42:23;;;;;;;;;;;;;;;;;;5066511;28;5165;-56
2023/09/02 00:44:49;;;;;;;;;;;;;;;;;;5096453;28;5113;-56
2023/09/02 00:47:14;;;;;;;;;;;;;;;;;;5096533;28;5108;-56
2023/09/02 00:49:39;;;;;;;;;;;;;;;;;;5071627;28;3332;-56
2023/09/02 00:52:05;;;;;;;;;;;;;;;;;;5088282;28;5036;-56
2023/09/02 00:54:30;;;;;;;;;;;;;;;;;;5079615;28;4680;-56
2023/09/02 00:56:56;;;;;;;;;;;;;;;;;;5094280;28;4480;-57
2023/09/02 00:59:21;;;;;;;;;;;;;;;;;;5090658;28;5112;-56
2023/09/02 01:01:46;;;;;;;;;;;;;;;;;;5094915;28;3246;-56
2023/09/02 01:04:11;;;;;;;;;;;;;;;;;;5098266;28;5008;-56
2023/09/02 01:06:37;;;;;;;;;;;;;;;;;;5095907;28;5087;-56
2023/09/02 01:09:03;;;;;;;;;;;;;;;;;;5089985;28;5297;-56
2023/09/02 01:11:29;;;;;;;;;;;;;;;;;;5091800;28;5077;-56
2023/09/02 01:13:54;;;;;;;;;;;;;;;;;;5091213;28;3230;-56
2023/09/02 01:16:19;;;;;;;;;;;;;;;;;;5088570;28;4903;-56
2023/09/02 01:18:45;;;;;;;;;;;;;;;;;;5099167;28;5021;-56
2023/09/02 01:21:19;;;;;;;;;;;;;;;;;;5091647;28;4638;-56
2023/09/02 01:23:54;;;;;;;;;;;;;;;;;;5086691;28;4585;-56
2023/09/02 01:26:19;;;;;;;;;;;;;;;;;;5089262;28;4969;-56
2023/09/02 01:28:45;;;;;;;;;;;;;;;;;;5092235;28;1155;-57
2023/09/02 01:31:10;;;;;;;;;;;;;;;;;;5073133;28;5079;-57
2023/09/02 01:33:36;;;;;;;;;;;;;;;;;;5073375;28;5179;-56
2023/09/02 01:36:01;;;;;;;;;;;;;;;;;;5071656;28;5177;-56
2023/09/02 01:38:27;;;;;;;;;;;;;;;;;;5105930;28;5008;-56
2023/09/02 01:40:53;;;;;;;;;;;;;;;;;;5077357;28;3667;-56
2023/09/02 01:43:20;;;;;;;;;;;;;;;;;;5076746;28;4477;-56
2023/09/02 01:45:45;;;;;;;;;;;;;;;;;;5079222;28;4942;-56
2023/09/02 01:48:11;;;;;;;;;;;;;;;;;;5075020;28;5086;-56
2023/09/02 01:50:36;;;;;;;;;;;;;;;;;;5089946;28;4423;-55
2023/09/02 01:53:01;;;;;;;;;;;;;;;;;;5074348;28;3293;-56
2023/09/02 01:55:26;;;;;;;;;;;;;;;;;;5098857;28;5026;-56
2023/09/02 01:57:52;;;;;;;;;;;;;;;;;;5071826;28;5073;-56
2023/09/02 02:00:17;;;;;;;;;;;;;;;;;;5102847;28;5142;-55
2023/09/02 02:02:43;;;;;;;;;;;;;;;;;;5085259;28;4782;-56
2023/09/02 02:05:17;;;;;;;;;;;;;;;;;;5092466;28;1611;-56
2023/09/02 02:07:44;;;;;;;;;;;;;;;;;;5093978;28;4685;-56
2023/09/02 02:10:11;;;;;;;;;;;;;;;;;;5068823;28;5115;-56
2023/09/02 02:12:37;;;;;;;;;;;;;;;;;;5085045;28;5145;-55
2023/09/02 02:15:03;;;;;;;;;;;;;;;;;;5084039;28;4635;-56
2023/09/02 02:17:29;;;;;;;;;;;;;;;;;;5090764;28;5372;-56
2023/09/02 02:19:54;;;;;;;;;;;;;;;;;;5095094;28;3187;-57
2023/09/02 02:22:20;;;;;;;;;;;;;;;;;;5090634;28;4961;-56
2023/09/02 02:24:45;;;;;;;;;;;;;;;;;;5086047;28;5091;-56
2023/09/02 02:27:10;;;;;;;;;;;;;;;;;;5090820;28;5014;-56
2023/09/02 02:29:35;;;;;;;;;;;;;;;;;;5088591;28;4828;-56
2023/09/02 02:32:01;;;;;;;;;;;;;;;;;;5090817;28;4931;-56
2023/09/02 02:34:26;;;;;;;;;;;;;;;;;;5091298;28;5082;-56
2023/09/02 02:36:51;;;;;;;;;;;;;;;;;;5096409;28;4951;-56
2023/09/02 02:39:16;;;;;;;;;;;;;;;;;;5097212;28;5085;-56
2023/09/02 02:41:42;;;;;;;;;;;;;;;;;;5092648;28;5078;-56
2023/09/02 02:44:07;;;;;;;;;;;;;;;;;;5095788;28;3595;-56
2023/09/02 02:46:32;;;;;;;;;;;;;;;;;;5101487;28;4514;-56
2023/09/02 02:48:58;;;;;;;;;;;;;;;;;;5096904;28;5192;-56
2023/09/02 02:51:23;;;;;;;;;;;;;;;;;;5093990;28;4991;-56
2023/09/02 02:53:48;;;;;;;;;;;;;;;;;;5099927;28;4628;-56
2023/09/02 02:56:14;;;;;;;;;;;;;;;;;;5093741;28;5108;-56
2023/09/02 02:58:39;;;;;;;;;;;;;;;;;;5095574;28;3163;-55
2023/09/02 03:01:05;;;;;;;;;;;;;;;;;;5091861;28;5004;-56
2023/09/02 03:03:30;;;;;;;;;;;;;;;;;;5089365;28;5048;-56
2023/09/02 03:05:56;;;;;;;;;;;;;;;;;;5098908;28;5101;-56
2023/09/02 03:08:21;;;;;;;;;;;;;;;;;;5102671;28;4634;-56
2023/09/02 03:10:54;;;;;;;;;;;;;;;;;;5091533;28;3212;-56
2023/09/02 03:13:19;;;;;;;;;;;;;;;;;;5091864;28;5003;-56
2023/09/02 03:15:48;;;;;;;;;;;;;;;;;;5072603;28;5528;-56
2023/09/02 03:18:13;;;;;;;;;;;;;;;;;;5088120;28;5009;-56
2023/09/02 03:20:39;;;;;;;;;;;;;;;;;;5086862;28;4523;-56
2023/09/02 03:23:05;;;;;;;;;;;;;;;;;;5097012;28;1975;-56
2023/09/02 03:25:31;;;;;;;;;;;;;;;;;;5089415;28;5288;-56
2023/09/02 03:27:56;;;;;;;;;;;;;;;;;;5095312;28;4824;-56
2023/09/02 03:30:22;;;;;;;;;;;;;;;;;;5092773;28;5175;-56
2023/09/02 03:32:47;;;;;;;;;;;;;;;;;;5094478;28;5139;-56
2023/09/02 03:35:12;;;;;;;;;;;;;;;;;;5097377;28;5073;-56
2023/09/02 03:37:37;;;;;;;;;;;;;;;;;;5101921;28;1096;-56
2023/09/02 03:40:03;;;;;;;;;;;;;;;;;;5100697;28;5208;-56
2023/09/02 03:42:28;;;;;;;;;;;;;;;;;;5084857;28;4989;-56
2023/09/02 03:44:54;;;;;;;;;;;;;;;;;;5098571;28;4640;-56
2023/09/02 03:47:19;;;;;;;;;;;;;;;;;;5097964;28;5012;-55
2023/09/02 03:49:44;;;;;;;;;;;;;;;;;;5098339;28;1140;-56
2023/09/02 03:52:09;;;;;;;;;;;;;;;;;;5097564;28;4827;-55
2023/09/02 03:54:35;;;;;;;;;;;;;;;;;;5097181;28;5145;-56
2023/09/02 03:57:00;;;;;;;;;;;;;;;;;;5090046;28;5250;-55
2023/09/02 03:59:25;;;;;;;;;;;;;;;;;;5071482;28;4555;-56
2023/09/02 04:01:50;;;;;;;;;;;;;;;;;;5093398;28;3147;-56
2023/09/02 04:04:16;;;;;;;;;;;;;;;;;;5088190;28;5005;-56
2023/09/02 04:06:41;;;;;;;;;;;;;;;;;;5087679;28;5045;-56
2023/09/02 04:09:09;;;;;;;;;;;;;;;;;;5098042;28;4876;-56
2023/09/02 04:11:35;;;;;;;;;;;;;;;;;;5084809;28;4978;-56
2023/09/02 04:14:00;;;;;;;;;;;;;;;;;;5089739;28;3267;-56
2023/09/02 04:16:26;;;;;;;;;;;;;;;;;;5077954;28;5135;-56
2023/09/02 04:18:51;;;;;;;;;;;;;;;;;;5083080;28;5193;-56
2023/09/02 04:21:16;;;;;;;;;;;;;;;;;;5088421;28;5090;-56
2023/09/02 04:23:41;;;;;;;;;;;;;;;;;;5092716;28;4507;-56
2023/09/02 04:26:07;;;;;;;;;;;;;;;;;;5099953;28;2998;-56
2023/09/02 04:28:32;;;;;;;;;;;;;;;;;;5092105;28;4868;-56
2023/09/02 04:30:57;;;;;;;;;;;;;;;;;;5095606;28;4967;-56
2023/09/02 04:33:26;;;;;;;;;;;;;;;;;;5082023;28;5073;-56
2023/09/02 04:35:51;;;;;;;;;;;;;;;;;;5094388;28;5212;-56
2023/09/02 04:38:16;;;;;;;;;;;;;;;;;;5095369;28;4962;-56
2023/09/02 04:40:42;;;;;;;;;;;;;;;;;;5092415;28;2328;-56
2023/09/02 04:43:08;;;;;;;;;;;;;;;;;;5098908;28;5002;-56
2023/09/02 04:45:34;;;;;;;;;;;;;;;;;;5091251;28;5307;-56
2023/09/02 04:47:59;;;;;;;;;;;;;;;;;;5092369;28;5167;-56
2023/09/02 04:50:24;;;;;;;;;;;;;;;;;;5093846;28;5052;-56
2023/09/02 04:52:50;;;;;;;;;;;;;;;;;;5087550;28;3278;-56
2023/09/02 04:55:16;;;;;;;;;;;;;;;;;;5091183;28;5063;-56
2023/09/02 04:57:41;;;;;;;;;;;;;;;;;;5063796;28;4846;-56
2023/09/02 05:00:07;;;;;;;;;;;;;;;;;;5050380;28;4536;-56
2023/09/02 05:02:32;;;;;;;;;;;;;;;;;;5043606;28;4983;-56
2023/09/02 05:04:58;;;;;;;;;;;;;;;;;;5047768;28;1929;-56
2023/09/02 05:07:23;;;;;;;;;;;;;;;;;;5039309;28;5029;-56
2023/09/02 05:09:49;;;;;;;;;;;;;;;;;;5043679;28;4853;-56
2023/09/02 05:12:14;;;;;;;;;;;;;;;;;;5055965;28;5080;-56
2023/09/02 05:14:40;;;;;;;;;;;;;;;;;;5062949;28;4753;-56
2023/09/02 05:17:05;;;;;;;;;;;;;;;;;;5060473;28;3364;-56
2023/09/02 05:19:30;;;;;;;;;;;;;;;;;;5066953;28;5054;-56
2023/09/02 05:21:57;;;;;;;;;;;;;;;;;;5076219;28;4524;-56
2023/09/02 05:24:22;;;;;;;;;;;;;;;;;;5071001;28;5029;-59
2023/09/02 05:26:47;;;;;;;;;;;;;;;;;;5061902;28;4888;-56
2023/09/02 05:29:13;;;;;;;;;;;;;;;;;;5066653;28;5141;-56
2023/09/02 05:31:38;;;;;;;;;;;;;;;;;;5063871;28;4850;-56
2023/09/02 05:34:03;;;;;;;;;;;;;;;;;;5056119;28;4503;-57
2023/09/02 05:36:28;;;;;;;;;;;;;;;;;;5066985;28;4470;-56
2023/09/02 05:38:53;;;;;;;;;;;;;;;;;;5065336;28;4523;-56
2023/09/02 05:41:19;;;;;;;;;;;;;;;;;;5058881;28;5084;-56
2023/09/02 05:43:44;;;;;;;;;;;;;;;;;;5066750;28;3238;-56
2023/09/02 05:46:09;;;;;;;;;;;;;;;;;;5053923;28;5142;-56
2023/09/02 05:48:34;;;;;;;;;;;;;;;;;;5057179;28;5212;-56
2023/09/02 05:51:00;;;;;;;;;;;;;;;;;;5063658;28;5124;-57
2023/09/02 05:53:25;;;;;;;;;;;;;;;;;;5067887;28;5139;-56
2023/09/02 05:55:56;;;;;;;;;;;;;;;;;;5071376;28;2432;-56
2023/09/02 05:58:22;;;;;;;;;;;;;;;;;;5067921;28;4874;-56
2023/09/02 06:00:48;;;;;;;;;;;;;;;;;;5066678;28;4837;-56
2023/09/02 06:03:13;;;;;;;;;;;;;;;;;;5066040;28;5519;-56
2023/09/02 06:05:38;;;;;;;;;;;;;;;;;;5065786;28;4972;-56
2023/09/02 06:08:04;;;;;;;;;;;;;;;;;;5071238;28;1262;-56
2023/09/02 06:10:29;;;;;;;;;;;;;;;;;;5069979;28;5157;-57
2023/09/02 06:12:54;;;;;;;;;;;;;;;;;;5057079;28;4848;-56
2023/09/02 06:15:19;;;;;;;;;;;;;;;;;;5065141;28;4967;-56
2023/09/02 06:17:44;;;;;;;;;;;;;;;;;;5066947;28;5085;-56
2023/09/02 06:20:10;;;;;;;;;;;;;;;;;;5052069;28;5110;-53
2023/09/02 06:22:35;;;;;;;;;;;;;;;;;;5068516;28;2283;-54
2023/09/02 06:25:01;;;;;;;;;;;;;;;;;;5070840;28;4881;-56
2023/09/02 06:27:26;;;;;;;;;;;;;;;;;;5073606;28;4936;-56
2023/09/02 06:29:51;;;;;;;;;;;;;;;;;;5083295;28;5031;-55
2023/09/02 06:32:16;;;;;;;;;;;;;;;;;;5045348;28;5144;-55
2023/09/02 06:34:41;;;;;;;;;;;;;;;;;;5068196;28;3437;-56
2023/09/02 06:37:07;;;;;;;;;;;;;;;;;;5068034;28;4844;-57
2023/09/02 06:39:32;;;;;;;;;;;;;;;;;;5057986;28;5148;-56
2023/09/02 06:41:57;;;;;;;;;;;;;;;;;;5065132;28;4776;-53
2023/09/02 06:44:22;;;;;;;;;;;;;;;;;;5066006;28;5221;-54
2023/09/02 06:46:48;;;;;;;;;;;;;;;;;;5068998;28;3455;-55
2023/09/02 06:49:13;;;;;;;;;;;;;;;;;;5064571;28;5007;-55
2023/09/02 06:51:38;;;;;;;;;;;;;;;;;;5070834;28;4838;-54
2023/09/02 06:54:03;;;;;;;;;;;;;;;;;;5067391;28;4513;-56
2023/09/02 06:56:29;;;;;;;;;;;;;;;;;;5060820;28;4971;-55
2023/09/02 06:58:54;;;;;;;;;;;;;;;;;;5045698;28;3310;-54
2023/09/02 07:01:22;;;;;;;;;;;;;;;;;;5043054;28;4779;-55
2023/09/02 07:03:48;;;;;;;;;;;;;;;;;;5046482;28;4715;-54
2023/09/02 07:06:15;;;;;;;;;;;;;;;;;;5042134;28;5181;-54
2023/09/02 07:08:40;;;;;;;;;;;;;;;;;;5051222;28;5091;-55
2023/09/02 07:11:06;;;;;;;;;;;;;;;;;;5088752;28;3169;-58
2023/09/02 07:13:32;;;;;;;;;;;;;;;;;;5082228;28;4875;-56
2023/09/02 07:15:58;;;;;;;;;;;;;;;;;;5079636;28;5053;-56
2023/09/02 07:18:23;;;;;;;;;;;;;;;;;;5075546;28;5159;-54
2023/09/02 07:20:48;;;;;;;;;;;;;;;;;;5083508;28;4987;-53
2023/09/02 07:23:13;;;;;;;;;;;;;;;;;;5084688;28;5099;-54
2023/09/02 07:25:39;;;;;;;;;;;;;;;;;;5087846;28;1168;-55
2023/09/02 07:28:04;;;;;;;;;;;;;;;;;;5094482;28;4979;-55
2023/09/02 07:30:29;;;;;;;;;;;;;;;;;;5087135;28;4582;-56
2023/09/02 07:32:54;;;;;;;;;;;;;;;;;;5083269;28;4956;-56
2023/09/02 07:35:20;;;;;;;;;;;;;;;;;;5085414;28;5117;-56
2023/09/02 07:37:45;;;;;;;;;;;;;;;;;;5085008;28;3297;-61
2023/09/02 07:40:10;;;;;;;;;;;;;;;;;;5101022;28;5146;-58
2023/09/02 07:42:36;;;;;;;;;;;;;;;;;;5088560;28;5175;-57
2023/09/02 07:45:01;;;;;;;;;;;;;;;;;;5087972;28;5101;-56
2023/09/02 07:47:26;;;;;;;;;;;;;;;;;;5088083;28;5163;-59
2023/09/02 07:49:53;;;;;;;;;;;;;;;;;;5076147;28;3731;-56
2023/09/02 07:52:19;;;;;;;;;;;;;;;;;;5081128;28;5045;-58
2023/09/02 07:54:44;;;;;;;;;;;;;;;;;;5076367;28;4500;-66
2023/09/02 07:57:09;;;;;;;;;;;;;;;;;;5075737;28;5093;-64
2023/09/02 07:59:35;;;;;;;;;;;;;;;;;;5068491;28;5070;-64
2023/09/02 08:02:00;;;;;;;;;;;;;;;;;;5070433;28;3453;-63
2023/09/02 08:04:25;;;;;;;;;;;;;;;;;;5046800;28;4953;-65
2023/09/02 08:06:50;;;;;;;;;;;;;;;;;;5059079;28;4964;-69
2023/09/02 08:09:15;;;;;;;;;;;;;;;;;;5059883;28;4473;-65
2023/09/02 08:11:41;;;;;;;;;;;;;;;;;;5063642;28;5103;-66
2023/09/02 08:14:06;;;;;;;;;;;;;;;;;;5039244;28;2389;-72
2023/09/02 08:16:31;;;;;;;;;;;;;;;;;;5068116;28;4605;-60
2023/09/02 08:18:57;;;;;;;;;;;;;;;;;;5058783;28;4853;-58
2023/09/02 08:21:22;;;;;;;;;;;;;;;;;;5060685;28;4661;-58
2023/09/02 08:23:47;;;;;;;;;;;;;;;;;;5061389;28;5213;-56
2023/09/02 08:26:13;;;;;;;;;;;;;;;;;;5066312;28;5295;-56
2023/09/02 08:28:38;;;;;;;;;;;;;;;;;;5067138;28;2841;-58
2023/09/02 08:31:03;;;;;;;;;;;;;;;;;;5049761;28;5130;-57
2023/09/02 08:33:29;;;;;;;;;;;;;;;;;;5046031;28;5196;-57
2023/09/02 08:35:54;;;;;;;;;;;;;;;;;;5047642;28;5198;-61
2023/09/02 08:38:19;;;;;;;;;;;;;;;;;;5047293;28;5107;-60
2023/09/02 08:40:44;;;;;;;;;;;;;;;;;;5057492;28;3341;-57
2023/09/02 08:43:10;;;;;;;;;;;;;;;;;;5044937;28;4972;-56
2023/09/02 08:45:35;;;;;;;;;;;;;;;;;;5045416;28;4450;-56
2023/09/02 08:48:02;;;;;;;;;;;;;;;;;;5052700;28;5086;-56
2023/09/02 08:50:28;;;;;;;;;;;;;;;;;;5027917;28;5087;-56
2023/09/02 08:52:53;;;;;;;;;;;;;;;;;;5055325;28;1218;-56
2023/09/02 08:55:18;;;;;;;;;;;;;;;;;;5062346;28;4983;-64
2023/09/02 08:57:44;;;;;;;;;;;;;;;;;;5084673;28;5012;-57
2023/09/02 09:00:09;;;;;;;;;;;;;;;;;;5088574;28;4924;-53
2023/09/02 09:02:36;;;;;;;;;;;;;;;;;;5084814;28;5244;-55
2023/09/02 09:05:02;;;;;;;;;;;;;;;;;;5092744;28;3422;-55
2023/09/02 09:07:27;;;;;;;;;;;;;;;;;;5083267;28;5137;-55
2023/09/02 09:09:52;;;;;;;;;;;;;;;;;;5091568;28;4464;-55
2023/09/02 09:12:18;;;;;;;;;;;;;;;;;;5040664;28;5132;-55
2023/09/02 09:14:45;;;;;;;;;;;;;;;;;;5083681;28;5276;-55
2023/09/02 09:17:10;;;;;;;;;;;;;;;;;;5082390;28;4458;-56
2023/09/02 09:19:35;;;;;;;;;;;;;;;;;;5072823;28;1181;-55
2023/09/02 09:22:02;;;;;;;;;;;;;;;;;;5065643;28;5013;-55
2023/09/02 09:24:28;;;;;;;;;;;;;;;;;;5048133;28;4566;-68
2023/09/02 09:26:54;;;;;;;;;;;;;;;;;;5082368;28;5109;-60
2023/09/02 09:29:22;;;;;;;;;;;;;;;;;;5080839;28;4574;-63
2023/09/02 09:31:48;;;;;;;;;;;;;;;;;;5086413;28;5106;-63
2023/09/02 09:34:13;;;;;;;;;;;;;;;;;;5076190;28;5159;-59
2023/09/02 09:36:39;;;;;;;;;;;;;;;;;;5066525;28;5398;-56
2023/09/02 09:39:04;;;;;;;;;;;;;;;;;;5083437;28;4999;-57
2023/09/02 09:41:30;;;;;;;;;;;;;;;;;;5070023;28;5650;-56
2023/09/02 09:44:09;;;;;;;;;;;;;;;;;;5069035;28;2242;-57
2023/09/02 09:46:44;;;;;;;;;;;;;;;;;;5080791;28;4907;-56
2023/09/02 09:49:22;;;;;;;;;;;;;;;;;;5084252;28;5011;-58
2023/09/02 09:51:47;;;;;;;;;;;;;;;;;;5082127;28;5026;-57
2023/09/02 09:54:12;;;;;;;;;;;;;;;;;;5083656;28;5162;-57
2023/09/02 09:56:44;;;;;;;;;;;;;;;;;;5073914;28;5347;-57
2023/09/02 09:59:09;;;;;;;;;;;;;;;;;;5066689;28;4738;-57
2023/09/02 10:01:35;;;;;;;;;;;;;;;;;;5075024;28;3237;-57
2023/09/02 10:04:05;;;;;;;;;;;;;;;;;;5063787;28;5079;-57
2023/09/02 10:06:30;;;;;;;;;;;;;;;;;;5062417;28;5120;-56
2023/09/02 10:08:58;;;;;;;;;;;;;;;;;;5062713;28;5038;-56
2023/09/02 10:11:26;;;;;;;;;;;;;;;;;;5056115;28;4827;-56
2023/09/02 10:13:54;;;;;;;;;;;;;;;;;;5067000;28;984;-56
2023/09/02 10:16:20;;;;;;;;;;;;;;;;;;5064752;28;5034;-57
2023/09/02 10:18:48;;;;;;;;;;;;;;;;;;5062324;28;4678;-57
2023/09/02 10:21:14;;;;;;;;;;;;;;;;;;5064020;28;5109;-57
2023/09/02 10:23:41;;;;;;;;;;;;;;;;;;5059035;28;5109;-57
2023/09/02 10:26:08;;;;;;;;;;;;;;;;;;5046001;28;1392;-57
2023/09/02 10:28:38;;;;;;;;;;;;;;;;;;5062379;28;5120;-57
2023/09/02 10:31:05;;;;;;;;;;;;;;;;;;5065003;28;5141;-56
2023/09/02 10:33:43;;;;;;;;;;;;;;;;;;5061230;28;4486;-56
2023/09/02 10:36:08;;;;;;;;;;;;;;;;;;5025484;28;5051;-56
2023/09/02 10:38:35;;;;;;;;;;;;;;;;;;5043983;28;4502;-56
2023/09/02 10:41:07;;;;;;;;;;;;;;;;;;5043860;28;3270;-57
2023/09/02 10:43:32;;;;;;;;;;;;;;;;;;5037370;28;4607;-57
2023/09/02 10:45:58;;;;;;;;;;;;;;;;;;5076499;28;4518;-57
2023/09/02 10:48:23;;;;;;;;;;;;;;;;;;5065187;28;4468;-57
2023/09/02 10:50:49;;;;;;;;;;;;;;;;;;5070835;28;5010;-58
2023/09/02 10:53:14;;;;;;;;;;;;;;;;;;5082874;28;5086;-57
2023/09/02 10:55:59;;;;;;;;;;;;;;;;;;5080859;28;1352;-57
2023/09/02 10:58:25;;;;;;;;;;;;;;;;;;5077667;28;5497;-57
2023/09/02 11:00:52;;;;;;;;;;;;;;;;;;5081208;28;5077;-57
2023/09/02 11:03:36;;;;;;;;;;;;;;;;;;5079551;28;5109;-57
2023/09/02 11:06:04;;;;;;;;;;;;;;;;;;5096473;28;5122;-57
2023/09/02 11:08:39;;;;;;;;;;;;;;;;;;5079093;28;4911;-57
2023/09/02 11:11:04;;;;;;;;;;;;;;;;;;5082355;28;3238;-57
2023/09/02 11:13:30;;;;;;;;;;;;;;;;;;5079566;28;5044;-57
2023/09/02 11:16:10;;;;;;;;;;;;;;;;;;5078496;28;4706;-57
2023/09/02 11:18:37;;;;;;;;;;;;;;;;;;5075081;28;5102;-57
2023/09/02 11:21:02;;;;;;;;;;;;;;;;;;5081019;28;4802;-57
2023/09/02 11:23:28;;;;;;;;;;;;;;;;;;5082959;28;5297;-57
2023/09/02 11:26:03;;;;;;;;;;;;;;;;;;5081072;28;1505;-57
2023/09/02 11:28:29;;;;;;;;;;;;;;;;;;5082222;28;5130;-57
2023/09/02 11:31:04;;;;;;;;;;;;;;;;;;5061859;28;6062;-57
2023/09/02 11:33:29;;;;;;;;;;;;;;;;;;5097396;28;5095;-57
2023/09/02 11:36:02;;;;;;;;;;;;;;;;;;5079034;28;4474;-57
2023/09/02 11:38:27;;;;;;;;;;;;;;;;;;5082222;28;5054;-57
2023/09/02 11:40:52;;;;;;;;;;;;;;;;;;5079442;28;3271;-57
2023/09/02 11:43:18;;;;;;;;;;;;;;;;;;5083295;28;4843;-57
2023/09/02 11:45:43;;;;;;;;;;;;;;;;;;5085247;28;4662;-57
2023/09/02 11:48:08;;;;;;;;;;;;;;;;;;5096053;28;5053;-57
2023/09/02 11:50:34;;;;;;;;;;;;;;;;;;5080055;28;5101;-57
2023/09/02 11:53:00;;;;;;;;;;;;;;;;;;5076560;28;1541;-57
2023/09/02 11:55:25;;;;;;;;;;;;;;;;;;5076455;28;5025;-57
2023/09/02 11:57:50;;;;;;;;;;;;;;;;;;5062689;28;5123;-56
2023/09/02 12:00:17;;;;;;;;;;;;;;;;;;5061208;28;5163;-56
2023/09/02 12:02:42;;;;;;;;;;;;;;;;;;5047183;28;4984;-56
2023/09/02 12:05:07;;;;;;;;;;;;;;;;;;5067175;28;1914;-58
2023/09/02 12:07:33;;;;;;;;;;;;;;;;;;5065215;28;5079;-57
2023/09/02 12:10:03;;;;;;;;;;;;;;;;;;5065741;28;5108;-56
2023/09/02 12:12:28;;;;;;;;;;;;;;;;;;5075588;28;4975;-57
2023/09/02 12:14:56;;;;;;;;;;;;;;;;;;5047652;28;5141;-57
2023/09/02 12:17:21;;;;;;;;;;;;;;;;;;5065114;28;4667;-57
2023/09/02 12:19:46;;;;;;;;;;;;;;;;;;5064413;28;3046;-67
2023/09/02 12:22:11;;;;;;;;;;;;;;;;;;5068350;28;4672;-66
2023/09/02 12:24:37;;;;;;;;;;;;;;;;;;5080149;28;5091;-63
2023/09/02 12:27:02;;;;;;;;;;;;;;;;;;5066589;28;5037;-61
2023/09/02 12:29:27;;;;;;;;;;;;;;;;;;5068248;28;5139;-65
2023/09/02 12:31:56;;;;;;;;;;;;;;;;;;5067489;28;4874;-68
2023/09/02 12:34:22;;;;;;;;;;;;;;;;;;5071577;28;5063;-64
2023/09/02 12:36:47;;;;;;;;;;;;;;;;;;5065192;28;5117;-69
2023/09/02 12:39:22;;;;;;;;;;;;;;;;;;5067703;28;5038;-69
2023/09/02 12:41:47;;;;;;;;;;;;;;;;;;5069158;28;4502;-59
2023/09/02 12:44:18;;;;;;;;;;;;;;;;;;5068308;28;4652;-62
2023/09/02 12:46:43;;;;;;;;;;;;;;;;;;5068011;28;1259;-65
2023/09/02 12:49:08;;;;;;;;;;;;;;;;;;5068075;28;4860;-70
2023/09/02 12:51:37;;;;;;;;;;;;;;;;;;5056966;28;4785;-63
2023/09/02 12:54:12;;;;;;;;;;;;;;;;;;5072889;28;4452;-61
2023/09/02 12:56:37;;;;;;;;;;;;;;;;;;5071913;28;5165;-62
2023/09/02 12:59:03;;;;;;;;;;;;;;;;;;5050464;28;2305;-60
2023/09/02 13:01:28;;;;;;;;;;;;;;;;;;5046983;28;5022;-60
2023/09/02 13:03:53;;;;;;;;;;;;;;;;;;5044532;28;5095;-60
2023/09/02 13:06:19;;;;;;;;;;;;;;;;;;5054416;28;5056;-60
2023/09/02 13:08:44;;;;;;;;;;;;;;;;;;5056671;28;4865;-61
2023/09/02 13:11:09;;;;;;;;;;;;;;;;;;5051108;28;3418;-62
2023/09/02 13:13:34;;;;;;;;;;;;;;;;;;5045342;28;5068;-61
2023/09/02 13:16:00;;;;;;;;;;;;;;;;;;5028209;28;5165;-62
2023/09/02 13:18:25;;;;;;;;;;;;;;;;;;5050898;28;5149;-61
2023/09/02 13:20:51;;;;;;;;;;;;;;;;;;5058531;28;4686;-59
2023/09/02 13:23:17;;;;;;;;;;;;;;;;;;5071753;28;5052;-62
2023/09/02 13:25:42;;;;;;;;;;;;;;;;;;5069584;28;3299;-59
2023/09/02 13:28:07;;;;;;;;;;;;;;;;;;5075068;28;4887;-60
2023/09/02 13:30:32;;;;;;;;;;;;;;;;;;5055643;28;5098;-58
2023/09/02 13:32:58;;;;;;;;;;;;;;;;;;5044960;28;5191;-58
2023/09/02 13:35:23;;;;;;;;;;;;;;;;;;5049054;28;4990;-58
2023/09/02 13:37:49;;;;;;;;;;;;;;;;;;5073453;28;2816;-57
2023/09/02 13:40:14;;;;;;;;;;;;;;;;;;5050297;28;5005;-59
2023/09/02 13:42:39;;;;;;;;;;;;;;;;;;5062458;28;5021;-59
2023/09/02 13:45:14;;;;;;;;;;;;;;;;;;5064443;28;5116;-58
2023/09/02 13:47:41;;;;;;;;;;;;;;;;;;5057054;28;4959;-59
2023/09/02 13:50:07;;;;;;;;;;;;;;;;;;5051599;28;2295;-59
2023/09/02 13:52:32;;;;;;;;;;;;;;;;;;5049720;28;4952;-59
2023/09/02 13:54:57;;;;;;;;;;;;;;;;;;5058132;28;4981;-59
2023/09/02 13:57:23;;;;;;;;;;;;;;;;;;5060701;28;5103;-58
2023/09/02 13:59:51;;;;;;;;;;;;;;;;;;5089155;28;5177;-59
2023/09/02 14:02:16;;;;;;;;;;;;;;;;;;5062446;28;5010;-59
2023/09/02 14:04:42;;;;;;;;;;;;;;;;;;5064933;28;1910;-59
2023/09/02 14:07:08;;;;;;;;;;;;;;;;;;5079026;28;4464;-59
2023/09/02 14:09:33;;;;;;;;;;;;;;;;;;5066328;28;5171;-59
2023/09/02 14:11:58;;;;;;;;;;;;;;;;;;5059140;28;5271;-59
2023/09/02 14:14:23;;;;;;;;;;;;;;;;;;5071200;28;4638;-59
2023/09/02 14:16:49;;;;;;;;;;;;;;;;;;5075873;28;1250;-59
2023/09/02 14:19:17;;;;;;;;;;;;;;;;;;5073965;28;4987;-59
2023/09/02 14:21:42;;;;;;;;;;;;;;;;;;5061595;28;5018;-59
2023/09/02 14:24:07;;;;;;;;;;;;;;;;;;5053451;28;5172;-59
2023/09/02 14:26:33;;;;;;;;;;;;;;;;;;5075969;28;4970;-59
2023/09/02 14:28:58;;;;;;;;;;;;;;;;;;5072238;28;1154;-60
2023/09/02 14:31:24;;;;;;;;;;;;;;;;;;5075005;28;4861;-60
2023/09/02 14:33:49;;;;;;;;;;;;;;;;;;5072196;28;5025;-57
2023/09/02 14:36:14;;;;;;;;;;;;;;;;;;5075852;28;4530;-57
2023/09/02 14:38:39;;;;;;;;;;;;;;;;;;5073054;28;4849;-58
2023/09/02 14:41:04;;;;;;;;;;;;;;;;;;5074192;28;1088;-61
2023/09/02 14:43:30;;;;;;;;;;;;;;;;;;5073700;28;4946;-59
2023/09/02 14:45:56;;;;;;;;;;;;;;;;;;5073135;28;4477;-59
2023/09/02 14:48:21;;;;;;;;;;;;;;;;;;5074985;28;5037;-59
2023/09/02 14:50:47;;;;;;;;;;;;;;;;;;5059563;28;4959;-60
2023/09/02 14:53:12;;;;;;;;;;;;;;;;;;5061680;28;5009;-59
2023/09/02 14:55:38;;;;;;;;;;;;;;;;;;5076593;28;3289;-59
2023/09/02 14:58:03;;;;;;;;;;;;;;;;;;5074669;28;5039;-59
2023/09/02 15:00:29;;;;;;;;;;;;;;;;;;5072432;28;4597;-58
2023/09/02 15:02:54;;;;;;;;;;;;;;;;;;5066962;28;5064;-58
2023/09/02 15:05:26;;;;;;;;;;;;;;;;;;5074332;28;5225;-58
2023/09/02 15:07:57;;;;;;;;;;;;;;;;;;5058972;28;3292;-58
2023/09/02 15:10:22;;;;;;;;;;;;;;;;;;5078448;28;5098;-59
2023/09/02 15:12:48;;;;;;;;;;;;;;;;;;5075260;28;4647;-58
2023/09/02 15:15:13;;;;;;;;;;;;;;;;;;5074873;28;4918;-58
2023/09/02 15:17:38;;;;;;;;;;;;;;;;;;5087951;28;5052;-58
2023/09/02 15:20:06;;;;;;;;;;;;;;;;;;5082403;28;1118;-58
2023/09/02 15:22:32;;;;;;;;;;;;;;;;;;5078547;28;4988;-58
2023/09/02 15:24:57;;;;;;;;;;;;;;;;;;5075759;28;4888;-59
2023/09/02 15:27:23;;;;;;;;;;;;;;;;;;5091762;28;5060;-60
2023/09/02 15:29:48;;;;;;;;;;;;;;;;;;5080716;28;5094;-58
2023/09/02 15:32:14;;;;;;;;;;;;;;;;;;5066867;28;4868;-59
2023/09/02 15:34:47;;;;;;;;;;;;;;;;;;5062810;28;3451;-58
2023/09/02 15:37:22;;;;;;;;;;;;;;;;;;5062433;28;5072;-58
2023/09/02 15:39:50;;;;;;;;;;;;;;;;;;5062356;28;4654;-58
2023/09/02 15:42:15;;;;;;;;;;;;;;;;;;5069901;28;5059;-58
2023/09/02 15:44:45;;;;;;;;;;;;;;;;;;5077658;28;4689;-58
2023/09/02 15:47:10;;;;;;;;;;;;;;;;;;5069800;28;4874;-58
2023/09/02 15:49:35;;;;;;;;;;;;;;;;;;5066892;28;3213;-57
2023/09/02 15:52:01;;;;;;;;;;;;;;;;;;5087300;28;4939;-58
2023/09/02 15:54:26;;;;;;;;;;;;;;;;;;5069603;28;5056;-58
2023/09/02 15:56:51;;;;;;;;;;;;;;;;;;5062604;28;5154;-59
2023/09/02 15:59:16;;;;;;;;;;;;;;;;;;5063939;28;5427;-62
2023/09/02 16:01:42;;;;;;;;;;;;;;;;;;5063869;28;3397;-60
2023/09/02 16:04:07;;;;;;;;;;;;;;;;;;5070015;28;5046;-59
2023/09/02 16:06:32;;;;;;;;;;;;;;;;;;5069623;28;5029;-59
2023/09/02 16:08:57;;;;;;;;;;;;;;;;;;5065500;28;5159;-60
2023/09/02 16:11:24;;;;;;;;;;;;;;;;;;5068387;28;4505;-59
2023/09/02 16:13:49;;;;;;;;;;;;;;;;;;5062095;28;3276;-60
2023/09/02 16:16:14;;;;;;;;;;;;;;;;;;5062700;28;4498;-59
2023/09/02 16:18:39;;;;;;;;;;;;;;;;;;5068384;28;5093;-59
2023/09/02 16:21:05;;;;;;;;;;;;;;;;;;5068882;28;4980;-59
2023/09/02 16:23:30;;;;;;;;;;;;;;;;;;5079302;28;4952;-59
2023/09/02 16:25:55;;;;;;;;;;;;;;;;;;5069410;28;3377;-60
2023/09/02 16:28:20;;;;;;;;;;;;;;;;;;5068755;28;4997;-62
2023/09/02 16:30:46;;;;;;;;;;;;;;;;;;5075006;28;5252;-63
2023/09/02 16:33:11;;;;;;;;;;;;;;;;;;5085344;28;4917;-63
2023/09/02 16:35:36;;;;;;;;;;;;;;;;;;5069142;28;5143;-63
2023/09/02 16:38:02;;;;;;;;;;;;;;;;;;5075200;28;1571;-64
2023/09/02 16:40:27;;;;;;;;;;;;;;;;;;5069896;28;5172;-61
2023/09/02 16:42:52;;;;;;;;;;;;;;;;;;5067281;28;5094;-65
2023/09/02 16:45:18;;;;;;;;;;;;;;;;;;5058465;28;5184;-64
2023/09/02 16:47:50;;;;;;;;;;;;;;;;;;5047434;28;5020;-64
2023/09/02 16:50:16;;;;;;;;;;;;;;;;;;5061931;28;4653;-64
2023/09/02 16:52:51;;;;;;;;;;;;;;;;;;5065858;28;3397;-63
2023/09/02 16:55:17;;;;;;;;;;;;;;;;;;5064741;28;4994;-66